K34 weather

Gardner Municipal Airport
Gardner, Kansas, United States

Public forecast

Using degrees Fahrenheit for public forecast. Weather courtesy of forecast.io.

METAR (pilot weather report)

Report is more than 2 hours old.

Closest report is New Century Aircenter Airport, 3.4 nm (6.3 km) ENE. Retrieved 2019/08/17 08:44 UTC (4 hours ago):

KIXD 170844Z AUTO 34016G49KT 3/4SM TS BR 19/18 A2992 RMK AO2 PK WND 33051/0832 WSHFT 0816 LTG DSNT ALQDS RAEMM P0088 T01890178 PWINO $

TAF (pilot weather forecast)

Closest forecast is New Century Aircenter Airport, 3.4 nm (6.3 km) ENE. Retrieved 2019/08/17 12:39 UTC (7 minutes ago):

TAF KIXD 171135Z 1712/1812 30009KT P6SM -TSRA OVC090CB FM171400 15007KT P6SM BKN045 FM172000 18008KT P6SM SCT080 FM180200 18008KT P6SM VCTS SCT100CB